createdAt,value
2023-04-29T00:00:31.264Z,11.099243
2023-04-29T00:03:56.549Z,11.05896
2023-04-29T00:07:21.637Z,11.05896
2023-04-29T00:10:46.826Z,11.018677
2023-04-29T00:14:12.081Z,10.968323
2023-04-29T00:17:37.248Z,10.988464
2023-04-29T00:21:02.415Z,10.93811
2023-04-29T00:24:27.595Z,10.907898
2023-04-29T00:27:52.783Z,10.917969
2023-04-29T00:31:18.037Z,10.917969
2023-04-29T00:34:43.165Z,10.968323
2023-04-29T00:38:08.353Z,10.887756
2023-04-29T00:41:33.580Z,10.907898
2023-04-29T00:44:58.784Z,10.907898
2023-04-29T00:48:24.001Z,10.93811
2023-04-29T00:51:49.169Z,10.93811
2023-04-29T00:55:14.380Z,10.958252
2023-04-29T00:58:39.557Z,10.988464
2023-04-29T01:02:04.751Z,10.988464
2023-04-29T01:05:29.957Z,10.998535
2023-04-29T01:08:55.141Z,10.998535
2023-04-29T01:12:20.332Z,11.018677
2023-04-29T01:15:45.599Z,10.988464
2023-04-29T01:19:10.740Z,10.917969
2023-04-29T01:22:35.957Z,10.907898
2023-04-29T01:26:01.169Z,10.857544
2023-04-29T01:29:26.337Z,10.80719
2023-04-29T01:32:51.604Z,10.787048
2023-04-29T01:36:16.772Z,10.756836
2023-04-29T01:39:41.982Z,10.706482
2023-04-29T01:43:07.143Z,10.706482
2023-04-29T01:46:32.359Z,10.635986
2023-04-29T01:49:57.525Z,10.666199
2023-04-29T01:53:22.718Z,10.625916
2023-04-29T01:56:47.921Z,10.625916
2023-04-29T02:00:13.098Z,10.656128
2023-04-29T02:03:38.394Z,10.666199
2023-04-29T02:07:03.489Z,10.625916
2023-04-29T02:10:28.671Z,10.605774
2023-04-29T02:13:53.882Z,10.605774
2023-04-29T02:17:19.061Z,10.595703
2023-04-29T02:20:44.268Z,10.595703
2023-04-29T02:24:09.489Z,10.605774
2023-04-29T02:27:34.759Z,10.625916
2023-04-29T02:30:59.992Z,10.625916
2023-04-29T02:34:25.162Z,10.585632
2023-04-29T02:37:50.335Z,10.635986
2023-04-29T02:41:15.536Z,10.635986
2023-04-29T02:44:40.760Z,10.635986
2023-04-29T02:48:05.985Z,10.635986
2023-04-29T02:51:31.138Z,10.635986
2023-04-29T02:54:56.354Z,10.585632
2023-04-29T02:58:21.560Z,10.515137
2023-04-29T03:01:46.962Z,10.515137
2023-04-29T03:05:11.980Z,10.515137
2023-04-29T03:08:37.137Z,10.474854
2023-04-29T03:12:02.350Z,10.444641
2023-04-29T03:15:27.547Z,10.414429
2023-04-29T03:18:52.741Z,10.343933
2023-04-29T03:22:17.988Z,10.323792
2023-04-29T03:25:43.097Z,10.323792
2023-04-29T03:29:08.285Z,10.273438
2023-04-29T03:32:33.490Z,10.253296
2023-04-29T03:35:58.640Z,10.202942
2023-04-29T03:39:23.900Z,10.223083
2023-04-29T03:42:49.049Z,10.223083
2023-04-29T03:46:14.250Z,10.223083
2023-04-29T03:49:39.434Z,10.202942
2023-04-29T03:53:04.653Z,10.172729
2023-04-29T03:56:29.934Z,10.122375
2023-04-29T03:59:55.159Z,10.112305
2023-04-29T04:03:20.360Z,10.082092
2023-04-29T04:06:45.403Z,10.122375
2023-04-29T04:10:10.559Z,10.142517
2023-04-29T04:13:35.809Z,10.152588
2023-04-29T04:17:00.954Z,10.1828
2023-04-29T04:20:26.532Z,10.1828
2023-04-29T04:23:51.722Z,10.202942
2023-04-29T04:27:16.902Z,10.253296
2023-04-29T04:30:42.091Z,10.233154
2023-04-29T04:34:07.250Z,10.263367
2023-04-29T04:37:32.462Z,10.273438
2023-04-29T04:40:57.657Z,10.293579
2023-04-29T04:44:22.852Z,10.323792
2023-04-29T04:47:48.695Z,10.364075
2023-04-29T04:51:13.828Z,10.384216
2023-04-29T04:54:39.038Z,10.414429
2023-04-29T04:58:04.229Z,10.4245
2023-04-29T05:01:29.474Z,10.484924
2023-04-29T05:04:54.677Z,10.505066
2023-04-29T05:08:19.863Z,10.545349
2023-04-29T05:11:45.190Z,10.525208
2023-04-29T05:15:10.449Z,10.545349
2023-04-29T05:18:35.656Z,10.585632
2023-04-29T05:22:00.933Z,10.666199
2023-04-29T05:25:26.148Z,10.67627
2023-04-29T05:28:51.448Z,10.666199
2023-04-29T05:32:16.700Z,10.656128
2023-04-29T05:35:41.866Z,10.696411
2023-04-29T05:39:07.053Z,10.696411
2023-04-29T05:42:32.195Z,10.666199
2023-04-29T05:45:57.442Z,10.696411
2023-04-29T05:49:22.521Z,10.706482
2023-04-29T05:52:47.694Z,10.776978
2023-04-29T05:56:12.881Z,10.80719
2023-04-29T05:59:38.011Z,10.837402
2023-04-29T06:03:03.259Z,10.877686
2023-04-29T06:06:28.380Z,10.857544
2023-04-29T06:09:53.735Z,10.847473
2023-04-29T06:13:18.690Z,10.877686
2023-04-29T06:16:43.974Z,10.958252
2023-04-29T06:20:09.149Z,10.998535
2023-04-29T06:23:34.318Z,11.038818
2023-04-29T06:26:59.504Z,11.05896
2023-04-29T06:30:24.690Z,11.05896
2023-04-29T06:33:49.820Z,11.05896
2023-04-29T06:37:15.018Z,11.069031
2023-04-29T06:40:40.177Z,11.05896
2023-04-29T06:44:05.345Z,11.028748
2023-04-29T06:47:30.569Z,11.038818
2023-04-29T06:50:55.675Z,11.038818
2023-04-29T06:54:20.848Z,11.018677
2023-04-29T06:57:46.025Z,10.917969
2023-04-29T07:01:11.255Z,10.847473
2023-04-29T07:04:36.399Z,10.736694
2023-04-29T07:08:01.475Z,10.656128
2023-04-29T07:11:26.656Z,10.605774
2023-04-29T07:14:51.827Z,10.625916
2023-04-29T07:18:16.985Z,10.656128
2023-04-29T07:21:42.149Z,10.625916
2023-04-29T07:25:07.299Z,10.585632
2023-04-29T07:28:32.499Z,10.55542
2023-04-29T07:31:57.675Z,10.505066
2023-04-29T07:35:22.853Z,10.525208
2023-04-29T07:38:48.021Z,10.505066
2023-04-29T07:42:13.169Z,10.414429
2023-04-29T07:45:38.447Z,10.4245
2023-04-29T07:49:03.593Z,10.454712
2023-04-29T07:52:28.841Z,10.505066
2023-04-29T07:55:54.086Z,10.515137
2023-04-29T07:59:19.266Z,10.545349
2023-04-29T08:02:44.584Z,10.585632
2023-04-29T08:06:09.835Z,10.605774
2023-04-29T08:09:34.966Z,10.625916
2023-04-29T08:13:00.266Z,10.706482
2023-04-29T08:16:25.407Z,10.756836
2023-04-29T08:19:50.615Z,10.93811
2023-04-29T08:23:15.839Z,11.05896
2023-04-29T08:26:41.073Z,11.240234
2023-04-29T08:30:06.316Z,11.290588
2023-04-29T08:33:31.509Z,11.391296
2023-04-29T08:36:56.773Z,11.552429
2023-04-29T08:40:22.060Z,11.622925
2023-04-29T08:43:47.222Z,11.612854
2023-04-29T08:47:12.507Z,11.612854
2023-04-29T08:50:37.707Z,11.653137
2023-04-29T08:54:02.950Z,11.582642
2023-04-29T08:57:28.233Z,11.512146
2023-04-29T09:00:53.486Z,11.461792
2023-04-29T09:04:18.776Z,11.391296
2023-04-29T09:07:43.918Z,11.270447
2023-04-29T09:11:09.133Z,11.18988
2023-04-29T09:14:34.380Z,11.169739
2023-04-29T09:17:59.622Z,11.089172
2023-04-29T09:21:24.864Z,11.099243
2023-04-29T09:24:50.143Z,10.998535
2023-04-29T09:28:15.299Z,10.958252
2023-04-29T09:31:40.545Z,10.988464
2023-04-29T09:35:05.734Z,11.038818
2023-04-29T09:38:31.114Z,11.17981
2023-04-29T09:41:56.227Z,11.290588
2023-04-29T09:45:21.458Z,11.330872
2023-04-29T09:48:46.717Z,11.391296
2023-04-29T09:52:11.969Z,11.330872
2023-04-29T09:55:37.244Z,11.371155
2023-04-29T09:59:02.483Z,11.371155
2023-04-29T10:02:27.799Z,11.421509
2023-04-29T10:05:53.004Z,11.44165
2023-04-29T10:09:18.173Z,11.542358
2023-04-29T10:12:43.378Z,11.522217
2023-04-29T10:16:08.548Z,11.622925
2023-04-29T10:19:33.666Z,11.602783
2023-04-29T10:22:58.847Z,11.643066
2023-04-29T10:26:24.015Z,11.612854
2023-04-29T10:29:49.271Z,11.653137
2023-04-29T10:33:14.412Z,11.653137
2023-04-29T10:36:39.566Z,11.673279
2023-04-29T10:40:04.677Z,11.69342
2023-04-29T10:43:29.854Z,11.653137
2023-04-29T10:46:55.091Z,11.673279
2023-04-29T10:50:20.202Z,11.673279
2023-04-29T10:53:45.396Z,11.733704
2023-04-29T10:57:10.560Z,11.733704
2023-04-29T11:00:35.769Z,11.69342
2023-04-29T11:04:01.013Z,11.612854
2023-04-29T11:07:26.101Z,11.512146
2023-04-29T11:10:51.258Z,11.391296
2023-04-29T11:14:16.433Z,11.361084
2023-04-29T11:17:41.677Z,11.361084
2023-04-29T11:21:06.815Z,11.18988
2023-04-29T11:24:31.948Z,11.169739
2023-04-29T11:27:57.135Z,11.17981
2023-04-29T11:31:22.328Z,11.17981
2023-04-29T11:34:47.431Z,11.169739
2023-04-29T11:38:12.600Z,11.169739
2023-04-29T11:41:37.759Z,11.280518
2023-04-29T11:45:02.939Z,11.43158
2023-04-29T11:48:28.104Z,11.471863
2023-04-29T11:51:53.286Z,11.542358
2023-04-29T11:55:18.476Z,11.703491
2023-04-29T11:58:43.632Z,11.804199
2023-04-29T12:02:08.820Z,11.914978
2023-04-29T12:05:34.009Z,11.975403
2023-04-29T12:08:59.165Z,12.005615
2023-04-29T12:12:24.379Z,11.975403
2023-04-29T12:15:49.545Z,11.914978
2023-04-29T12:19:14.708Z,11.854553
2023-04-29T12:22:39.899Z,11.824341
2023-04-29T12:26:05.078Z,11.784058
2023-04-29T12:29:30.273Z,11.622925
2023-04-29T12:32:55.453Z,11.572571
2023-04-29T12:36:20.582Z,11.522217
2023-04-29T12:39:45.748Z,11.552429
2023-04-29T12:43:10.882Z,11.622925
2023-04-29T12:46:36.146Z,11.572571
2023-04-29T12:50:01.281Z,11.622925
2023-04-29T12:53:26.442Z,11.753845
2023-04-29T12:56:52.002Z,11.69342
2023-04-29T13:00:17.171Z,11.572571
2023-04-29T13:03:42.540Z,11.512146
2023-04-29T13:07:07.492Z,11.471863
2023-04-29T13:10:32.688Z,11.371155
2023-04-29T13:13:58.078Z,11.351013
2023-04-29T13:17:23.081Z,11.401367
2023-04-29T13:20:48.203Z,11.361084
2023-04-29T13:24:13.349Z,11.371155
2023-04-29T13:27:38.542Z,11.401367
2023-04-29T13:31:03.670Z,11.43158
2023-04-29T13:34:28.832Z,11.522217
2023-04-29T13:37:54.011Z,11.552429
2023-04-29T13:41:20.401Z,11.612854
2023-04-29T13:44:52.114Z,11.622925
2023-04-29T13:48:20.720Z,11.542358
2023-04-29T13:52:10.501Z,11.492004
2023-04-29T14:05:16.055Z,11.391296
2023-04-29T14:08:41.122Z,11.401367
2023-04-29T14:12:06.319Z,11.240234
2023-04-29T14:15:31.478Z,11.069031
2023-04-29T14:18:56.622Z,10.857544
2023-04-29T14:22:21.807Z,10.837402
2023-04-29T14:25:46.980Z,10.787048
2023-04-29T14:29:12.179Z,10.696411
2023-04-29T14:32:37.356Z,10.67627
2023-04-29T14:36:02.493Z,10.656128
2023-04-29T14:39:27.639Z,10.55542
2023-04-29T14:42:52.798Z,10.515137
2023-04-29T14:46:18.019Z,10.55542
2023-04-29T14:49:43.133Z,10.656128
2023-04-29T14:53:08.290Z,10.726624
2023-04-29T14:56:33.449Z,10.787048
2023-04-29T14:59:58.665Z,10.80719
2023-04-29T15:03:23.905Z,10.837402
2023-04-29T15:41:03.465Z,10.917969
2023-04-29T15:44:28.645Z,10.887756
2023-04-29T15:47:53.899Z,10.837402
2023-04-29T15:51:19.064Z,10.756836
2023-04-29T15:54:44.275Z,10.736694
2023-04-29T15:58:09.595Z,10.736694
2023-04-29T16:01:36.396Z,10.787048
2023-04-29T16:04:59.926Z,10.787048
2023-04-29T16:08:25.155Z,10.756836
2023-04-29T16:11:50.367Z,10.726624
2023-04-29T16:15:16.548Z,10.67627
2023-04-29T16:18:41.713Z,10.656128
2023-04-29T16:22:06.961Z,10.666199
2023-04-29T16:25:32.136Z,10.656128
2023-04-29T16:28:57.342Z,10.605774
2023-04-29T16:32:22.541Z,10.605774
2023-04-29T16:35:47.738Z,10.625916
2023-04-29T16:39:12.956Z,10.656128
2023-04-29T16:42:38.144Z,10.666199
2023-04-29T16:46:03.374Z,10.67627
2023-04-29T16:49:28.565Z,10.67627
2023-04-29T16:52:53.784Z,10.635986
2023-04-29T16:56:18.973Z,10.656128
2023-04-29T16:59:44.151Z,10.656128
2023-04-29T17:03:09.400Z,10.625916
2023-04-29T17:06:34.738Z,10.625916
2023-04-29T17:09:59.752Z,10.635986
2023-04-29T17:13:24.970Z,10.605774
2023-04-29T17:16:50.209Z,10.595703
2023-04-29T17:20:15.390Z,10.525208
2023-04-29T17:23:40.610Z,10.55542
2023-04-29T17:27:05.810Z,10.605774
2023-04-29T17:30:30.988Z,10.595703
2023-04-29T17:33:56.468Z,10.625916
2023-04-29T17:37:21.751Z,10.585632
2023-04-29T17:40:46.975Z,10.605774
2023-04-29T17:44:12.204Z,10.635986
2023-04-29T17:47:37.474Z,10.605774
2023-04-29T17:51:02.654Z,10.656128
2023-04-29T17:54:27.847Z,10.595703
2023-04-29T17:57:53.073Z,10.605774
2023-04-29T18:01:18.261Z,10.55542
2023-04-29T18:04:43.440Z,10.545349
2023-04-29T18:08:08.639Z,10.505066
2023-04-29T18:11:33.802Z,10.484924
2023-04-29T18:14:59.028Z,10.444641
2023-04-29T18:18:24.181Z,10.444641
2023-04-29T18:21:49.382Z,10.384216
2023-04-29T18:25:14.573Z,10.333862
2023-04-29T18:28:39.840Z,10.293579
2023-04-29T18:32:07.352Z,10.263367
2023-04-29T18:35:30.251Z,10.233154
2023-04-29T18:38:55.422Z,10.1828
2023-04-29T18:42:20.629Z,10.223083
2023-04-29T18:45:45.910Z,10.1828
2023-04-29T18:49:11.027Z,10.1828
2023-04-29T18:52:36.213Z,10.172729
2023-04-29T18:56:01.432Z,10.142517
2023-04-29T18:59:26.657Z,10.112305
2023-04-29T19:02:51.869Z,10.122375
2023-04-29T19:06:17.111Z,10.122375
2023-04-29T19:09:42.226Z,10.112305
2023-04-29T19:13:07.666Z,10.122375
2023-04-29T19:16:34.755Z,10.122375
2023-04-29T19:19:58.047Z,10.122375
2023-04-29T19:23:23.265Z,10.092163
2023-04-29T19:26:48.432Z,10.072021
2023-04-29T19:30:13.630Z,10.092163
2023-04-29T19:33:38.839Z,10.072021
2023-04-29T19:37:04.039Z,10.011597
2023-04-29T19:40:29.262Z,9.991455
2023-04-29T19:43:54.425Z,9.941101
2023-04-29T19:47:19.726Z,9.941101
2023-04-29T19:50:44.939Z,9.900818
2023-04-29T19:54:10.094Z,9.890747
2023-04-29T19:57:35.332Z,9.840393
2023-04-29T20:01:00.575Z,9.860535
2023-04-29T20:04:25.689Z,9.860535
2023-04-29T20:07:50.878Z,9.840393
2023-04-29T20:11:16.094Z,9.790039
2023-04-29T20:14:41.337Z,9.749756
2023-04-29T20:18:06.480Z,9.739685
2023-04-29T20:21:31.678Z,9.709473
2023-04-29T20:24:56.916Z,9.709473
2023-04-29T20:28:22.068Z,9.649048
2023-04-29T20:31:47.352Z,9.578552
2023-04-29T20:35:12.460Z,9.638977
2023-04-29T20:38:37.663Z,9.568481
2023-04-29T20:42:02.868Z,9.578552
2023-04-29T20:45:28.060Z,9.598694
2023-04-29T20:48:53.298Z,9.608765
2023-04-29T20:52:18.623Z,9.598694
2023-04-29T20:55:43.824Z,9.638977
2023-04-29T20:59:09.000Z,9.578552
2023-04-29T21:02:34.198Z,9.598694
2023-04-29T21:05:59.489Z,9.568481
2023-04-29T21:09:24.621Z,9.608765
2023-04-29T21:12:49.834Z,9.598694
2023-04-29T21:16:15.013Z,9.649048
2023-04-29T21:19:40.197Z,9.638977
2023-04-29T21:23:05.428Z,9.659119
2023-04-29T21:26:30.586Z,9.608765
2023-04-29T21:29:55.954Z,9.598694
2023-04-29T21:33:21.010Z,9.598694
2023-04-29T21:36:46.200Z,9.568481
2023-04-29T21:40:11.421Z,9.578552
2023-04-29T21:43:36.616Z,9.598694
2023-04-29T21:47:01.867Z,9.608765
2023-04-29T21:50:26.987Z,9.598694
2023-04-29T21:53:52.182Z,9.538269
2023-04-29T21:57:17.382Z,9.528198
2023-04-29T22:00:42.562Z,9.477844
2023-04-29T22:04:07.738Z,9.538269
2023-04-29T22:07:32.911Z,9.508057
2023-04-29T22:10:58.117Z,9.508057
2023-04-29T22:14:23.330Z,9.528198
2023-04-29T22:17:48.474Z,9.558411
2023-04-29T22:21:13.694Z,9.528198
2023-04-29T22:24:38.886Z,9.538269
2023-04-29T22:28:04.095Z,9.558411
2023-04-29T22:31:29.317Z,9.528198
2023-04-29T22:34:54.449Z,9.528198
2023-04-29T22:38:19.644Z,9.508057
2023-04-29T22:41:44.875Z,9.467773
2023-04-29T22:45:10.112Z,9.457703
2023-04-29T22:48:35.303Z,9.42749
2023-04-29T22:52:00.462Z,9.417419
2023-04-29T22:55:25.659Z,9.387207
2023-04-29T22:58:50.857Z,9.387207
2023-04-29T23:02:16.032Z,9.326782
2023-04-29T23:05:41.260Z,9.346924
2023-04-29T23:09:06.430Z,9.316711
2023-04-29T23:12:31.608Z,9.276428
2023-04-29T23:15:56.858Z,9.205933
2023-04-29T23:19:22.088Z,9.226074
2023-04-29T23:22:47.279Z,9.195862
2023-04-29T23:26:12.472Z,9.205933
2023-04-29T23:29:37.679Z,9.195862
2023-04-29T23:33:02.909Z,9.226074
2023-04-29T23:36:28.129Z,9.195862
2023-04-29T23:39:53.509Z,9.145508
2023-04-29T23:43:18.483Z,9.125366
2023-04-29T23:46:43.800Z,9.095154
2023-04-29T23:50:08.917Z,9.054871
2023-04-29T23:53:34.129Z,9.054871
2023-04-29T23:56:59.393Z,9.054871
